Time;durP1;ratioP1;P1;durP2;ratioP2;P2;SDS_P1;SDS_P2;PMS_P1;PMS_P2;Temp;Humidity;BMP_temperature;BMP_pressure;BME280_temperature;BME280_humidity;BME280_pressure;Samples;Min_cycle;Max_cycle;Signal;HPM_P1;HPM_P2
2022/03/10 00:00:29;;;;;;;24.63;14.20;;;0.00;88.30;;;;;;5054731;28;20664;-79
2022/03/10 00:02:57;;;;;;;24.13;14.07;;;-0.10;88.50;;;;;;5055079;28;20217;-79
2022/03/10 00:05:24;;;;;;;22.63;13.70;;;-0.10;88.80;;;;;;5054677;28;20217;-79
2022/03/10 00:07:51;;;;;;;27.20;15.43;;;-0.10;89.20;;;;;;5133407;22;20227;-78
2022/03/10 00:10:17;;;;;;;26.75;14.32;;;-0.10;89.10;;;;;;5096336;28;20199;-76
2022/03/10 00:12:48;;;;;;;20.52;14.75;;;-0.20;88.80;;;;;;5097700;28;20199;-78
2022/03/10 00:15:16;;;;;;;24.60;15.25;;;-0.20;89.10;;;;;;5083271;28;20224;-78
2022/03/10 00:17:43;;;;;;;21.98;13.90;;;-0.20;89.30;;;;;;5088452;28;20200;-78
2022/03/10 00:20:12;;;;;;;25.20;15.65;;;-0.20;89.40;;;;;;5091572;28;20203;-78
2022/03/10 00:22:49;;;;;;;24.63;15.98;;;-0.30;89.40;;;;;;5090626;28;20573;-77
2022/03/10 00:25:16;;;;;;;29.67;15.45;;;-0.30;89.50;;;;;;5081045;28;20232;-77
2022/03/10 00:27:43;;;;;;;27.23;16.25;;;-0.30;89.50;;;;;;5082080;28;20223;-76
2022/03/10 00:30:11;;;;;;;22.92;15.18;;;-0.30;89.60;;;;;;5084193;28;20196;-78
2022/03/10 00:32:42;;;;;;;24.15;13.85;;;-0.40;89.50;;;;;;5075415;28;20208;-78
2022/03/10 00:35:11;;;;;;;26.05;14.80;;;-0.30;89.80;;;;;;5074482;28;20228;-78
2022/03/10 00:37:38;;;;;;;26.10;16.83;;;-0.40;89.50;;;;;;5073938;28;20200;-78
2022/03/10 00:40:06;;;;;;;25.08;13.68;;;-0.40;89.40;;;;;;5074418;28;20624;-78
2022/03/10 00:42:37;;;;;;;19.13;12.73;;;-0.40;89.50;;;;;;5074471;28;20699;-78
2022/03/10 00:45:04;;;;;;;26.88;13.63;;;-0.40;89.90;;;;;;5074013;28;20297;-78
2022/03/10 00:47:32;;;;;;;26.60;14.23;;;-0.40;90.00;;;;;;5073799;28;20255;-77
2022/03/10 00:49:58;;;;;;;22.95;13.20;;;-0.40;90.10;;;;;;5073916;28;20211;-76
2022/03/10 00:52:27;;;;;;;21.25;13.38;;;-0.50;90.00;;;;;;5074074;28;20200;-77
2022/03/10 00:54:54;;;;;;;22.65;13.65;;;-0.50;90.40;;;;;;5073857;28;20229;-78
2022/03/10 00:57:21;;;;;;;23.30;13.43;;;-0.50;90.10;;;;;;5073487;28;20204;-77
2022/03/10 00:59:47;;;;;;;21.58;12.65;;;-0.50;90.20;;;;;;5074948;28;20207;-78
2022/03/10 01:02:14;;;;;;;21.02;12.15;;;-0.50;90.20;;;;;;5074975;28;20208;-78
2022/03/10 01:04:43;;;;;;;26.17;14.30;;;-0.60;90.10;;;;;;5074325;28;20746;-77
2022/03/10 01:07:10;;;;;;;26.58;13.43;;;-0.50;90.40;;;;;;5074106;28;20274;-76
2022/03/10 01:09:38;;;;;;;25.30;12.35;;;-0.60;90.40;;;;;;5074565;28;20567;-78
2022/03/10 01:12:05;;;;;;;20.40;12.43;;;-0.60;90.40;;;;;;5075052;28;20589;-78
2022/03/10 01:14:32;;;;;;;22.23;13.73;;;-0.50;90.50;;;;;;5074605;28;20228;-78
2022/03/10 01:16:59;;;;;;;24.10;12.20;;;-0.60;90.30;;;;;;5072538;28;20205;-77
2022/03/10 01:19:25;;;;;;;18.92;11.80;;;-0.60;90.20;;;;;;5073653;28;20200;-77
2022/03/10 01:21:52;;;;;;;18.10;11.60;;;-0.60;90.10;;;;;;5073195;28;20204;-77
2022/03/10 01:24:19;;;;;;;17.50;11.00;;;-0.60;90.10;;;;;;5072609;28;20273;-76
2022/03/10 01:26:47;;;;;;;18.98;11.07;;;-0.60;90.20;;;;;;5071862;28;20699;-77
2022/03/10 01:29:14;;;;;;;17.23;11.20;;;-0.60;90.30;;;;;;5072639;28;20204;-77
2022/03/10 01:31:41;;;;;;;20.50;12.05;;;-0.60;90.30;;;;;;5073203;28;20619;-77
2022/03/10 01:34:07;;;;;;;14.90;11.27;;;-0.70;90.60;;;;;;5072770;28;20591;-78
2022/03/10 01:36:34;;;;;;;17.02;10.88;;;-0.70;90.20;;;;;;5073589;28;20223;-77
2022/03/10 01:39:04;;;;;;;20.67;11.35;;;-0.80;90.30;;;;;;5072842;28;20686;-78
2022/03/10 01:41:32;;;;;;;20.45;11.57;;;-0.80;90.30;;;;;;5073175;28;20258;-78
2022/03/10 01:44:01;;;;;;;21.05;11.55;;;-0.80;90.30;;;;;;5072929;28;20227;-78
2022/03/10 01:46:28;;;;;;;18.95;11.45;;;-0.80;90.80;;;;;;5073457;28;20586;-78
2022/03/10 01:48:55;;;;;;;15.93;11.23;;;-0.80;90.90;;;;;;5071558;28;20200;-78
2022/03/10 01:51:23;;;;;;;17.77;11.30;;;-0.80;90.70;;;;;;5073070;28;20218;-78
2022/03/10 01:53:50;;;;;;;16.10;11.18;;;-0.80;90.70;;;;;;5073071;28;20216;-77
2022/03/10 01:56:18;;;;;;;19.30;11.73;;;-0.80;90.70;;;;;;5072561;28;20208;-77
2022/03/10 01:58:46;;;;;;;16.80;11.20;;;-0.80;90.80;;;;;;5072598;28;20695;-78
2022/03/10 02:01:15;;;;;;;17.63;11.18;;;-0.80;90.90;;;;;;5072259;28;20702;-78
2022/03/10 02:03:42;;;;;;;21.88;12.15;;;-0.90;90.90;;;;;;5073370;28;20212;-78
2022/03/10 02:06:09;;;;;;;20.48;12.15;;;-0.90;91.00;;;;;;5072425;28;20211;-78
2022/03/10 02:11:21;;;;;;;18.70;11.10;;;-0.90;90.90;;;;;;5072642;28;20250;-78
2022/03/10 02:13:48;;;;;;;16.25;11.15;;;-0.90;90.90;;;;;;5072533;28;20207;-78
2022/03/10 02:19:04;;;;;;;17.10;10.30;;;-0.90;91.10;;;;;;5071773;28;20207;-78
2022/03/10 02:21:31;;;;;;;17.95;10.90;;;-0.90;91.10;;;;;;5072936;28;20196;-77
2022/03/10 02:23:59;;;;;;;15.95;11.25;;;-1.00;91.10;;;;;;5072447;28;20217;-77
2022/03/10 02:26:26;;;;;;;16.50;10.77;;;-1.00;91.20;;;;;;5072715;28;20216;-78
2022/03/10 02:28:53;;;;;;;17.00;10.35;;;-1.00;91.20;;;;;;5072168;28;20212;-78
2022/03/10 02:31:19;;;;;;;17.40;10.80;;;-1.00;91.40;;;;;;5072445;28;20641;-78
2022/03/10 02:33:46;;;;;;;16.40;10.27;;;-1.10;91.20;;;;;;5072270;28;20188;-77
2022/03/10 02:36:14;;;;;;;14.20;10.25;;;-1.10;91.20;;;;;;5072041;28;20208;-78
2022/03/10 02:38:41;;;;;;;17.52;11.10;;;-1.10;91.20;;;;;;5072331;28;20569;-78
2022/03/10 02:41:09;;;;;;;15.38;10.68;;;-1.20;91.40;;;;;;5072053;28;20204;-77
2022/03/10 02:43:36;;;;;;;17.65;9.68;;;-1.20;91.40;;;;;;5072302;28;20250;-78
2022/03/10 02:46:04;;;;;;;20.23;10.65;;;-1.20;91.20;;;;;;5072568;28;20572;-78
2022/03/10 02:48:30;;;;;;;17.15;10.82;;;-1.20;91.10;;;;;;5071324;28;20216;-78
2022/03/10 02:50:57;;;;;;;13.55;9.70;;;-1.20;91.00;;;;;;5072418;28;20197;-78
2022/03/10 02:53:24;;;;;;;16.15;9.38;;;-1.20;90.90;;;;;;5072336;28;20203;-78
2022/03/10 02:55:51;;;;;;;18.77;9.75;;;-1.20;90.90;;;;;;5072288;28;20217;-78
2022/03/10 02:58:19;;;;;;;13.07;9.35;;;-1.20;91.00;;;;;;5071549;28;20203;-77
2022/03/10 03:00:46;;;;;;;16.02;9.40;;;-1.20;90.90;;;;;;5074125;28;20204;-78
2022/03/10 03:03:13;;;;;;;18.05;9.85;;;-1.20;90.90;;;;;;5075904;28;20204;-78
2022/03/10 03:05:39;;;;;;;12.60;9.27;;;-1.30;91.10;;;;;;5076168;28;20220;-78
2022/03/10 03:08:08;;;;;;;16.33;10.82;;;-1.30;91.10;;;;;;5075684;28;20227;-78
2022/03/10 03:10:36;;;;;;;15.40;10.07;;;-1.30;91.20;;;;;;5076115;28;20228;-78
2022/03/10 03:13:05;;;;;;;14.05;8.75;;;-1.30;91.30;;;;;;5075639;28;20200;-76
2022/03/10 03:15:33;;;;;;;16.42;9.02;;;-1.30;91.20;;;;;;5075107;28;20230;-77
2022/03/10 03:18:01;;;;;;;15.68;10.02;;;-1.30;91.00;;;;;;5077302;28;20207;-78
2022/03/10 03:20:28;;;;;;;15.20;10.18;;;-1.30;91.00;;;;;;5076325;28;20226;-77
2022/03/10 03:22:54;;;;;;;17.45;10.10;;;-1.40;91.00;;;;;;5075053;28;20211;-78
2022/03/10 03:25:21;;;;;;;16.92;9.70;;;-1.30;91.20;;;;;;5075445;28;20227;-77
2022/03/10 03:27:48;;;;;;;12.57;8.38;;;-1.30;91.10;;;;;;5074425;28;20726;-77
2022/03/10 03:30:16;;;;;;;16.38;9.07;;;-1.40;91.10;;;;;;5075339;28;20208;-78
2022/03/10 03:32:44;;;;;;;18.38;9.95;;;-1.40;91.10;;;;;;5075576;28;20208;-77
2022/03/10 03:35:11;;;;;;;27.33;10.93;;;-1.40;91.10;;;;;;5074857;28;20228;-77
2022/03/10 03:37:38;;;;;;;17.02;10.32;;;-1.40;91.20;;;;;;5075026;28;20196;-78
2022/03/10 03:40:06;;;;;;;15.27;10.73;;;-1.40;91.20;;;;;;5075283;28;20674;-77
2022/03/10 03:42:34;;;;;;;16.13;9.85;;;-1.40;91.50;;;;;;5075408;28;20565;-78
2022/03/10 03:45:01;;;;;;;21.40;9.65;;;-1.50;91.40;;;;;;5074900;28;20223;-77
2022/03/10 03:47:28;;;;;;;14.73;9.68;;;-1.60;91.40;;;;;;5074993;28;20277;-78
2022/03/10 03:49:56;;;;;;;15.57;10.30;;;-1.60;91.40;;;;;;5075470;28;20673;-77
2022/03/10 03:52:23;;;;;;;21.73;10.13;;;-1.70;91.60;;;;;;5075095;28;20231;-78
2022/03/10 03:54:50;;;;;;;15.70;9.48;;;-1.70;91.70;;;;;;5075491;28;20252;-78
2022/03/10 03:57:17;;;;;;;16.48;10.63;;;-1.70;91.70;;;;;;5074183;28;20200;-78
2022/03/10 03:59:43;;;;;;;17.58;10.13;;;-1.60;91.70;;;;;;5075739;28;20699;-78
2022/03/10 04:02:10;;;;;;;15.48;10.10;;;-1.60;91.80;;;;;;5074783;28;20208;-78
2022/03/10 04:04:37;;;;;;;15.48;9.90;;;-1.70;91.80;;;;;;5075318;28;20219;-78
2022/03/10 04:07:06;;;;;;;19.50;10.38;;;-1.70;92.00;;;;;;5074556;28;20210;-77
2022/03/10 04:09:33;;;;;;;17.48;10.38;;;-1.70;92.30;;;;;;5075364;28;20656;-78
2022/03/10 04:12:00;;;;;;;13.13;9.65;;;-1.80;92.20;;;;;;5074041;28;20200;-78
2022/03/10 04:14:27;;;;;;;16.80;9.98;;;-1.80;92.30;;;;;;5074857;28;20221;-78
2022/03/10 04:16:53;;;;;;;13.95;9.57;;;-1.80;92.20;;;;;;5074738;28;20595;-78
2022/03/10 04:19:20;;;;;;;15.70;9.65;;;-1.80;92.20;;;;;;5075033;28;20204;-78
2022/03/10 04:21:47;;;;;;;16.00;9.55;;;-1.80;92.20;;;;;;5077472;28;20200;-77
2022/03/10 04:24:15;;;;;;;14.77;9.38;;;-1.80;92.40;;;;;;5082665;28;20224;-77
2022/03/10 04:26:43;;;;;;;18.63;10.32;;;-1.90;92.40;;;;;;5085590;28;20204;-77
2022/03/10 04:29:09;;;;;;;16.55;10.70;;;-1.90;92.40;;;;;;5085210;28;20231;-77
2022/03/10 04:31:36;;;;;;;17.27;9.93;;;-1.90;92.40;;;;;;5081199;28;20193;-77
2022/03/10 04:34:04;;;;;;;15.32;9.30;;;-1.90;92.40;;;;;;5072660;28;20224;-76
2022/03/10 04:36:30;;;;;;;14.32;8.98;;;-1.90;92.40;;;;;;5061124;28;20496;-78
2022/03/10 04:38:57;;;;;;;14.77;8.50;;;-1.90;92.40;;;;;;5054188;28;20204;-76
2022/03/10 04:41:25;;;;;;;16.50;9.60;;;-2.00;92.50;;;;;;5053316;28;20287;-76
2022/03/10 04:43:52;;;;;;;13.13;9.70;;;-2.00;92.70;;;;;;5052512;28;20197;-76
2022/03/10 04:46:19;;;;;;;14.52;9.48;;;-2.00;92.70;;;;;;5057598;28;20208;-76
2022/03/10 04:48:45;;;;;;;11.23;8.40;;;-2.00;92.80;;;;;;5061876;28;20592;-77
2022/03/10 04:51:12;;;;;;;14.90;10.07;;;-2.00;92.80;;;;;;5061544;28;20208;-75
2022/03/10 04:53:39;;;;;;;16.20;10.87;;;-2.00;92.90;;;;;;5057275;28;20466;-77
2022/03/10 04:56:06;;;;;;;17.02;10.52;;;-2.00;92.90;;;;;;5057649;28;20800;-76
2022/03/10 04:58:34;;;;;;;13.70;8.95;;;-2.00;92.70;;;;;;5060390;28;20201;-77
2022/03/10 05:01:01;;;;;;;14.25;8.50;;;-2.00;92.80;;;;;;5059752;28;20208;-77
2022/03/10 05:03:28;;;;;;;14.45;9.75;;;-2.00;93.00;;;;;;5061908;28;20200;-77
2022/03/10 05:05:54;;;;;;;15.30;9.50;;;-2.00;93.10;;;;;;5061927;28;20821;-78
2022/03/10 05:08:21;;;;;;;12.90;9.07;;;-2.00;93.10;;;;;;5059749;28;20224;-78
2022/03/10 05:10:48;;;;;;;14.75;9.05;;;-2.00;93.20;;;;;;5062360;28;20611;-78
2022/03/10 05:13:15;;;;;;;16.33;9.27;;;-2.10;93.40;;;;;;5063438;28;20661;-76
2022/03/10 05:15:43;;;;;;;15.38;10.10;;;-2.10;93.40;;;;;;5062193;28;20469;-80
2022/03/10 05:18:10;;;;;;;15.70;10.85;;;-2.10;93.20;;;;;;5061340;28;20234;-80
2022/03/10 05:20:37;;;;;;;14.07;8.35;;;-2.10;93.20;;;;;;5061657;28;20208;-79
2022/03/10 05:23:05;;;;;;;16.60;10.10;;;-2.10;93.20;;;;;;5059980;28;20204;-79
2022/03/10 05:25:34;;;;;;;14.75;9.10;;;-2.10;93.20;;;;;;5061842;28;20660;-79
2022/03/10 05:28:02;;;;;;;15.38;8.73;;;-2.10;93.20;;;;;;5057726;28;20209;-79
2022/03/10 05:30:28;;;;;;;15.48;9.02;;;-2.10;93.10;;;;;;5053409;28;20219;-78
2022/03/10 05:32:57;;;;;;;16.08;9.85;;;-2.10;93.00;;;;;;5055325;28;20197;-79
2022/03/10 05:35:24;;;;;;;17.35;10.07;;;-2.10;93.00;;;;;;5055294;28;20231;-79
2022/03/10 05:37:51;;;;;;;12.90;9.35;;;-2.00;93.80;;;;;;5056023;28;20231;-80
2022/03/10 05:40:19;;;;;;;18.73;9.52;;;-2.00;93.80;;;;;;5054839;28;20205;-80
2022/03/10 05:42:47;;;;;;;15.15;10.27;;;-2.00;93.60;;;;;;5054183;28;20201;-80
2022/03/10 05:45:19;;;;;;;19.00;10.10;;;-2.10;93.60;;;;;;5056848;28;20623;-80
2022/03/10 05:47:46;;;;;;;19.00;10.05;;;-2.10;93.50;;;;;;5059164;28;20588;-79
2022/03/10 05:50:15;;;;;;;17.38;10.23;;;-2.10;93.50;;;;;;5059112;28;20201;-79
2022/03/10 05:52:42;;;;;;;16.95;10.55;;;-2.10;93.70;;;;;;5059237;28;20229;-78
2022/03/10 05:55:10;;;;;;;16.92;9.32;;;-2.10;94.10;;;;;;5057916;28;20263;-80
2022/03/10 05:57:36;;;;;;;14.80;9.32;;;-2.20;93.70;;;;;;5058429;28;20201;-78
2022/03/10 06:00:04;;;;;;;15.90;9.60;;;-2.20;93.70;;;;;;5059651;28;20213;-78
2022/03/10 06:02:31;;;;;;;15.80;9.93;;;-2.10;93.70;;;;;;5057885;28;20723;-79
2022/03/10 06:05:00;;;;;;;18.10;10.45;;;-2.10;93.70;;;;;;5057898;28;20221;-79
2022/03/10 06:10:12;;;;;;;19.52;9.80;;;-2.10;93.60;;;;;;5118082;27;20187;-94
2022/03/10 06:12:40;;;;;;;16.52;10.30;;;-2.10;93.60;;;;;;5118176;27;20263;-94
2022/03/10 06:15:10;;;;;;;16.63;10.13;;;-2.20;93.70;;;;;;5117864;27;20214;-94
2022/03/10 06:17:38;;;;;;;17.38;10.10;;;-2.20;93.70;;;;;;5107159;27;20236;-94
2022/03/10 06:20:06;;;;;;;17.75;10.85;;;-2.20;94.00;;;;;;5097638;28;20220;-94
2022/03/10 06:22:37;;;;;;;17.50;10.48;;;-2.10;93.80;;;;;;5097444;28;20211;-94
2022/03/10 06:25:06;;;;;;;17.63;9.80;;;-2.10;93.70;;;;;;5097453;28;20248;-94
2022/03/10 06:27:34;;;;;;;13.20;10.60;;;-2.10;93.70;;;;;;5096912;28;20220;-93
2022/03/10 06:30:01;;;;;;;15.98;9.05;;;-2.00;93.70;;;;;;5097388;28;20219;-94
2022/03/10 06:32:28;;;;;;;15.32;10.00;;;-2.00;93.50;;;;;;5097479;28;20252;-94
2022/03/10 06:34:59;;;;;;;14.05;9.38;;;-1.90;93.50;;;;;;5096852;28;20412;-94
2022/03/10 06:37:26;;;;;;;17.55;10.80;;;-1.90;93.40;;;;;;5097478;28;20238;-94
2022/03/10 06:39:54;;;;;;;16.83;10.73;;;-1.80;93.40;;;;;;5108338;22;20195;-78
2022/03/10 06:42:21;;;;;;;18.17;10.60;;;-1.80;93.40;;;;;;5046737;28;20265;-77
2022/03/10 06:44:49;;;;;;;14.07;9.68;;;-1.70;93.50;;;;;;5030839;28;20705;-77
2022/03/10 06:47:16;;;;;;;17.60;10.77;;;-1.60;93.60;;;;;;5018896;28;20209;-77
2022/03/10 06:49:43;;;;;;;14.40;10.20;;;-1.60;93.60;;;;;;5020144;28;20226;-77
2022/03/10 06:52:10;;;;;;;16.33;10.30;;;-1.50;93.70;;;;;;5019862;28;20219;-77
2022/03/10 06:54:38;;;;;;;15.27;10.07;;;-1.40;93.80;;;;;;5018210;28;20230;-78
2022/03/10 06:57:06;;;;;;;14.55;10.43;;;-1.10;93.70;;;;;;5019504;28;20210;-77
2022/03/10 06:59:33;;;;;;;16.83;10.63;;;-0.70;93.30;;;;;;5018413;28;20198;-78
2022/03/10 07:02:00;;;;;;;14.52;9.52;;;-0.20;92.70;;;;;;5018086;28;20209;-77
2022/03/10 07:04:26;;;;;;;13.15;9.48;;;0.40;92.40;;;;;;5018910;28;20237;-78
2022/03/10 07:06:53;;;;;;;13.10;9.40;;;1.10;91.70;;;;;;5018725;28;20411;-78
2022/03/10 07:09:20;;;;;;;15.57;9.10;;;1.80;91.30;;;;;;5018966;28;20245;-78
2022/03/10 07:11:47;;;;;;;12.13;9.07;;;2.60;90.50;;;;;;5013574;28;20206;-77
2022/03/10 07:14:15;;;;;;;14.73;9.32;;;3.40;89.30;;;;;;5014132;28;20219;-78
2022/03/10 07:16:43;;;;;;;19.13;9.63;;;4.20;87.60;;;;;;5012821;28;20202;-77
2022/03/10 07:19:10;;;;;;;13.35;9.50;;;4.90;85.90;;;;;;5013904;28;20205;-77
2022/03/10 07:21:38;;;;;;;12.40;8.77;;;5.50;84.50;;;;;;5013487;28;20202;-77
2022/03/10 07:24:06;;;;;;;12.93;9.63;;;6.10;83.60;;;;;;5013150;28;20288;-77
2022/03/10 07:26:33;;;;;;;12.25;9.15;;;6.60;82.40;;;;;;5013438;28;20642;-76
2022/03/10 07:29:00;;;;;;;12.57;9.98;;;7.00;81.20;;;;;;5011454;28;20225;-75
2022/03/10 07:31:28;;;;;;;13.95;9.48;;;7.50;80.90;;;;;;5010345;28;20237;-77
2022/03/10 07:33:55;;;;;;;15.07;10.70;;;8.10;79.90;;;;;;5017377;28;20226;-77
2022/03/10 07:36:22;;;;;;;15.18;10.63;;;8.70;77.80;;;;;;5017265;28;20210;-77
2022/03/10 07:38:48;;;;;;;18.02;11.25;;;9.30;76.90;;;;;;5014495;28;20280;-77
2022/03/10 07:41:15;;;;;;;15.65;11.45;;;9.90;75.40;;;;;;5014242;28;20218;-76
2022/03/10 07:43:42;;;;;;;15.45;11.00;;;10.30;74.40;;;;;;5014738;28;20587;-77
2022/03/10 07:46:09;;;;;;;16.45;10.93;;;10.40;73.70;;;;;;5015412;28;20233;-77
2022/03/10 07:48:37;;;;;;;19.30;11.00;;;10.90;74.10;;;;;;5020630;28;20233;-77
2022/03/10 07:51:04;;;;;;;18.40;12.93;;;11.50;72.40;;;;;;5018279;28;20198;-76
2022/03/10 07:53:32;;;;;;;17.05;11.15;;;11.90;72.10;;;;;;5019600;28;20688;-77
2022/03/10 07:55:59;;;;;;;18.90;12.45;;;12.20;71.20;;;;;;5022428;28;20199;-77
2022/03/10 07:58:26;;;;;;;17.77;12.50;;;12.60;70.10;;;;;;5020205;28;20206;-77
2022/03/10 08:00:54;;;;;;;14.48;11.45;;;12.90;69.90;;;;;;5018331;28;20772;-77
2022/03/10 08:03:21;;;;;;;13.02;10.85;;;13.40;68.80;;;;;;5021374;28;20414;-77
2022/03/10 08:05:50;;;;;;;13.70;10.53;;;13.90;67.80;;;;;;5020395;28;20246;-77
2022/03/10 08:08:17;;;;;;;16.30;10.17;;;14.10;67.50;;;;;;5023815;28;20460;-77
2022/03/10 08:10:45;;;;;;;10.53;8.80;;;14.50;65.50;;;;;;5029000;28;20468;-77
2022/03/10 08:13:11;;;;;;;9.60;8.37;;;14.90;63.70;;;;;;5029283;28;20454;-77
2022/03/10 08:15:40;;;;;;;10.20;8.60;;;15.40;63.20;;;;;;5027414;28;21119;-77
2022/03/10 08:18:06;;;;;;;11.33;9.07;;;15.60;61.60;;;;;;5025218;28;20456;-77
2022/03/10 08:20:33;;;;;;;12.80;10.57;;;15.70;61.20;;;;;;5013658;28;20453;-77
2022/03/10 08:23:02;;;;;;;13.33;10.37;;;15.90;61.00;;;;;;5012861;28;20830;-76
2022/03/10 08:25:29;;;;;;;15.20;10.23;;;16.10;59.80;;;;;;5010838;28;20477;-76
2022/03/10 08:27:56;;;;;;;16.00;10.73;;;16.30;59.20;;;;;;5020273;28;20465;-77
2022/03/10 08:30:23;;;;;;;14.47;9.90;;;16.60;59.50;;;;;;5023232;28;20513;-76
2022/03/10 08:32:50;;;;;;;14.43;10.80;;;16.80;59.00;;;;;;5013526;28;20470;-77
2022/03/10 08:35:17;;;;;;;12.40;10.60;;;17.00;58.90;;;;;;5012837;28;20469;-76
2022/03/10 08:37:44;;;;;;;14.97;10.23;;;17.30;58.10;;;;;;5012858;28;20461;-77
2022/03/10 08:40:15;;;;;;;13.80;9.93;;;17.90;57.20;;;;;;5013158;28;20523;-76
2022/03/10 08:42:42;;;;;;;13.70;9.50;;;18.10;56.60;;;;;;5013852;28;20461;-77
2022/03/10 08:45:10;;;;;;;13.53;10.00;;;18.30;55.80;;;;;;5012031;28;20490;-77
2022/03/10 08:47:37;;;;;;;14.87;10.00;;;19.00;55.40;;;;;;5011648;28;20469;-77
2022/03/10 08:50:05;;;;;;;11.20;9.20;;;19.10;55.20;;;;;;5012486;28;20501;-77
2022/03/10 08:52:32;;;;;;;12.70;8.90;;;19.10;54.30;;;;;;5012489;28;20469;-77
2022/03/10 08:54:58;;;;;;;9.97;8.90;;;18.90;54.50;;;;;;5011794;28;20980;-77
2022/03/10 08:57:26;;;;;;;12.80;10.17;;;19.30;55.30;;;;;;5011737;28;20836;-77
2022/03/10 08:59:53;;;;;;;10.50;9.40;;;19.70;53.60;;;;;;5011504;28;20461;-77
2022/03/10 09:02:20;;;;;;;11.73;8.87;;;19.90;52.40;;;;;;5011906;28;20462;-77
2022/03/10 09:04:47;;;;;;;12.70;10.13;;;19.70;53.20;;;;;;5012305;28;20477;-75
2022/03/10 09:07:13;;;;;;;9.20;8.30;;;19.60;53.30;;;;;;5011935;28;20465;-76
2022/03/10 09:09:40;;;;;;;10.77;9.20;;;19.80;52.70;;;;;;5015377;28;20481;-76
2022/03/10 09:12:07;;;;;;;11.37;9.10;;;20.00;53.80;;;;;;5011540;28;20757;-77
2022/03/10 09:14:36;;;;;;;10.13;9.03;;;20.20;52.50;;;;;;5011500;28;20485;-77
2022/03/10 09:17:02;;;;;;;11.30;8.57;;;20.50;51.50;;;;;;5018580;28;20453;-77
2022/03/10 09:19:29;;;;;;;10.57;9.47;;;20.70;52.40;;;;;;5033452;28;20460;-77
2022/03/10 09:21:56;;;;;;;10.47;9.23;;;21.50;51.90;;;;;;5033621;28;20511;-77
2022/03/10 09:24:23;;;;;;;10.43;9.00;;;21.80;51.60;;;;;;5034782;28;20484;-77
2022/03/10 09:26:50;;;;;;;11.07;9.00;;;21.70;52.00;;;;;;5033553;28;20468;-77
2022/03/10 09:29:16;;;;;;;10.33;9.33;;;22.30;50.80;;;;;;5034517;28;20488;-77
2022/03/10 09:31:44;;;;;;;12.50;8.63;;;22.80;51.40;;;;;;5034411;28;20826;-76
2022/03/10 09:34:11;;;;;;;11.20;9.70;;;23.00;50.20;;;;;;5031561;28;21015;-76
2022/03/10 09:36:38;;;;;;;11.83;8.67;;;23.00;49.70;;;;;;5030913;28;20465;-76
2022/03/10 09:39:05;;;;;;;9.07;8.07;;;23.30;50.00;;;;;;5030047;28;20674;-76
2022/03/10 09:41:32;;;;;;;9.53;7.40;;;23.30;50.00;;;;;;5031081;28;20994;-76
2022/03/10 09:43:59;;;;;;;10.43;8.83;;;23.40;48.90;;;;;;5032423;28;20484;-78
2022/03/10 09:46:26;;;;;;;8.87;8.00;;;22.80;48.30;;;;;;5034555;28;20523;-78
2022/03/10 09:48:55;;;;;;;9.60;7.93;;;22.50;49.80;;;;;;5030378;28;20838;-76
2022/03/10 09:51:23;;;;;;;9.50;8.47;;;23.20;48.70;;;;;;5034981;28;20495;-78
2022/03/10 09:53:49;;;;;;;8.17;7.03;;;22.80;48.20;;;;;;5033357;28;20836;-77
2022/03/10 09:56:19;;;;;;;9.00;7.90;;;22.10;49.50;;;;;;5033739;28;20467;-78
2022/03/10 09:58:46;;;;;;;10.80;8.20;;;22.00;49.70;;;;;;5033653;28;20468;-77
2022/03/10 10:01:13;;;;;;;7.70;6.90;;;21.60;48.50;;;;;;5034249;28;20460;-78
2022/03/10 10:03:39;;;;;;;8.43;7.60;;;21.10;49.20;;;;;;5034195;28;20982;-78
2022/03/10 10:06:07;;;;;;;7.23;6.50;;;21.00;49.20;;;;;;5033667;28;20460;-77
2022/03/10 10:08:38;;;;;;;7.30;6.60;;;20.90;49.70;;;;;;5031180;28;20487;-78
2022/03/10 10:11:06;;;;;;;7.50;6.80;;;20.60;49.00;;;;;;5031304;28;20542;-77
2022/03/10 10:13:35;;;;;;;8.30;6.90;;;20.70;50.50;;;;;;5031377;28;20465;-77
2022/03/10 10:16:03;;;;;;;6.87;6.27;;;21.00;49.70;;;;;;5032055;28;20460;-78
2022/03/10 10:18:31;;;;;;;7.73;6.47;;;21.50;49.10;;;;;;5034117;28;21014;-77
2022/03/10 10:20:58;;;;;;;7.17;6.20;;;22.20;51.30;;;;;;5035016;28;20467;-77
2022/03/10 10:23:27;;;;;;;11.03;7.27;;;23.20;48.50;;;;;;5034728;28;20460;-78
2022/03/10 10:25:56;;;;;;;8.40;6.73;;;23.20;48.40;;;;;;5032732;28;20476;-77
2022/03/10 10:28:29;;;;;;;6.27;5.67;;;23.30;47.50;;;;;;5032078;28;20463;-77
2022/03/10 10:30:58;;;;;;;6.53;5.83;;;23.20;48.40;;;;;;5032324;28;20555;-77
2022/03/10 10:33:26;;;;;;;6.73;5.33;;;24.00;49.10;;;;;;5033419;28;20464;-77
2022/03/10 10:36:12;;;;;;;6.33;5.67;;;24.20;47.50;;;;;;5032481;28;21010;-77
2022/03/10 10:38:41;;;;;;;6.80;5.30;;;24.20;47.40;;;;;;5030680;28;20460;-77
2022/03/10 10:41:29;;;;;;;5.53;5.03;;;23.10;47.00;;;;;;5030795;28;20983;-77
2022/03/10 10:43:58;;;;;;;6.10;5.50;;;22.40;47.50;;;;;;5025706;28;20480;-77
2022/03/10 10:46:33;;;;;;;6.60;6.00;;;21.90;48.60;;;;;;5030482;28;20463;-77
2022/03/10 10:49:02;;;;;;;6.17;5.57;;;21.60;49.20;;;;;;5031655;28;20467;-77
2022/03/10 10:51:34;;;;;;;5.47;4.97;;;22.30;48.70;;;;;;5033089;28;20506;-77
2022/03/10 10:54:05;;;;;;;6.83;5.40;;;22.80;48.00;;;;;;5032501;28;20480;-77
2022/03/10 10:56:33;;;;;;;5.43;4.90;;;23.20;48.70;;;;;;5032958;28;20467;-77
2022/03/10 10:59:01;;;;;;;5.70;4.80;;;22.60;47.20;;;;;;5030540;28;20464;-77
2022/03/10 11:01:36;;;;;;;6.23;5.33;;;22.40;48.70;;;;;;5032727;28;20554;-77
2022/03/10 11:04:05;;;;;;;6.30;4.87;;;22.40;47.90;;;;;;5032364;28;20522;-77
2022/03/10 11:06:34;;;;;;;5.30;4.80;;;23.10;48.30;;;;;;5033882;28;20467;-77
2022/03/10 11:09:03;;;;;;;5.10;4.60;;;23.20;48.00;;;;;;5033929;28;20467;-77
2022/03/10 11:11:31;;;;;;;6.07;4.70;;;22.90;47.10;;;;;;5034971;28;20522;-77
2022/03/10 11:13:59;;;;;;;5.37;4.87;;;23.50;47.30;;;;;;5034588;28;20489;-77
2022/03/10 11:16:27;;;;;;;5.87;5.33;;;23.80;46.60;;;;;;5034745;28;20461;-77
2022/03/10 11:18:55;;;;;;;5.87;5.17;;;23.80;47.50;;;;;;5034497;28;20460;-77
2022/03/10 11:22:03;;;;;;;5.10;4.60;;;24.50;47.30;;;;;;5032614;28;20469;-77
2022/03/10 11:25:03;;;;;;;5.27;4.77;;;25.40;45.80;;;;;;5020198;28;20472;-77
2022/03/10 11:27:34;;;;;;;5.43;4.23;;;25.20;45.30;;;;;;5019480;28;21153;-77
2022/03/10 11:30:03;;;;;;;5.40;3.80;;;25.40;45.60;;;;;;5019438;28;20480;-77
2022/03/10 11:32:31;;;;;;;4.83;4.30;;;25.50;46.00;;;;;;5018222;28;20491;-77
2022/03/10 11:35:00;;;;;;;4.30;3.90;;;25.50;44.90;;;;;;5018607;28;20488;-77
2022/03/10 11:37:51;;;;;;;4.40;4.00;;;26.00;45.00;;;;;;5020921;28;20468;-77
2022/03/10 11:40:38;;;;;;;4.00;3.70;;;25.90;45.30;;;;;;5020516;28;20465;-77
2022/03/10 11:43:05;;;;;;;4.60;4.20;;;25.50;43.50;;;;;;5015615;28;20461;-77
2022/03/10 11:45:32;;;;;;;4.43;4.03;;;24.50;44.30;;;;;;5018563;28;20520;-77
2022/03/10 11:48:47;;;;;;;3.80;3.50;;;24.50;45.20;;;;;;5019367;28;20465;-77
2022/03/10 11:51:19;;;;;;;4.23;2.93;;;24.90;44.00;;;;;;4962412;28;20461;-78
2022/03/10 11:53:56;;;;;;;4.93;3.70;;;24.80;44.60;;;;;;4964436;29;20456;-76
2022/03/10 11:56:49;;;;;;;4.33;3.93;;;25.30;44.10;;;;;;4997237;28;20449;-78
2022/03/10 11:59:19;;;;;;;3.87;3.40;;;25.50;44.90;;;;;;5011741;28;20459;-77
2022/03/10 12:01:46;;;;;;;4.27;3.87;;;25.60;45.20;;;;;;5021658;28;20457;-77
2022/03/10 12:04:18;;;;;;;3.80;3.40;;;26.30;43.80;;;;;;5021716;28;20750;-77
2022/03/10 12:06:56;;;;;;;5.67;3.83;;;26.30;43.40;;;;;;5020424;28;20465;-77
2022/03/10 12:09:29;;;;;;;3.90;3.50;;;25.70;43.90;;;;;;5021402;28;20457;-76
2022/03/10 12:12:13;;;;;;;4.50;4.10;;;25.20;45.50;;;;;;5020247;28;20468;-77
2022/03/10 12:14:40;;;;;;;5.77;4.57;;;25.50;45.00;;;;;;5027283;28;20482;-77
2022/03/10 12:17:52;;;;;;;3.97;3.33;;;26.30;44.40;;;;;;5026564;28;20467;-78
2022/03/10 12:20:21;;;;;;;3.60;3.30;;;26.00;43.80;;;;;;5027063;28;20492;-76
2022/03/10 12:23:10;;;;;;;6.80;4.00;;;25.80;44.50;;;;;;5025579;28;20458;-77
2022/03/10 12:25:41;;;;;;;5.00;3.83;;;25.30;43.70;;;;;;5026051;28;20540;-76
2022/03/10 12:28:09;;;;;;;3.73;3.37;;;25.80;43.70;;;;;;5023442;28;20469;-77
2022/03/10 12:30:43;;;;;;;5.93;3.77;;;26.00;43.60;;;;;;5023625;28;20467;-77
2022/03/10 12:33:12;;;;;;;7.00;3.97;;;26.00;43.20;;;;;;5022998;28;20461;-78
2022/03/10 12:35:41;;;;;;;3.93;3.53;;;25.70;43.50;;;;;;5025389;28;20521;-77
2022/03/10 12:38:09;;;;;;;3.83;3.43;;;25.70;43.30;;;;;;5028628;28;20460;-77
2022/03/10 12:40:37;;;;;;;4.03;3.63;;;26.10;43.20;;;;;;5031831;28;20512;-77
2022/03/10 12:43:06;;;;;;;3.90;3.60;;;26.20;43.30;;;;;;5027091;28;20457;-77
2022/03/10 12:45:33;;;;;;;3.53;3.23;;;26.50;43.60;;;;;;5028120;28;20507;-77
2022/03/10 12:48:04;;;;;;;4.77;3.50;;;26.70;43.20;;;;;;5021945;28;20476;-77
2022/03/10 12:50:34;;;;;;;4.07;3.70;;;27.00;42.50;;;;;;5025386;28;20461;-78